createdAt,value
2019-03-01T00:00:04.497Z,70.50
2019-03-01T00:05:48.374Z,71.60
2019-03-01T00:11:05.063Z,71.30
2019-03-01T00:16:23.327Z,71.30
2019-03-01T00:21:31.760Z,71.10
2019-03-01T00:26:40.190Z,70.20
2019-03-01T00:31:48.677Z,69.50
2019-03-01T00:37:12.075Z,69.00
2019-03-01T00:42:36.845Z,68.50
2019-03-01T00:47:42.194Z,68.40
2019-03-01T00:52:47.564Z,69.20
2019-03-01T00:57:53.072Z,70.60
2019-03-01T01:02:58.508Z,70.60
2019-03-01T01:08:04.020Z,72.00
2019-03-01T01:13:09.586Z,71.30
2019-03-01T01:18:15.066Z,73.10
2019-03-01T01:23:20.558Z,72.60
2019-03-01T01:28:25.991Z,70.40
2019-03-01T01:33:31.352Z,73.00
2019-03-01T01:38:36.836Z,74.50
2019-03-01T01:43:42.258Z,74.10
2019-03-01T01:48:47.627Z,73.30
2019-03-01T01:53:52.983Z,71.60
2019-03-01T01:58:58.349Z,71.40
2019-03-01T02:04:03.761Z,72.00
2019-03-01T02:09:18.517Z,71.20
2019-03-01T02:14:24.099Z,70.40
2019-03-01T02:19:29.509Z,71.60
2019-03-01T02:24:34.855Z,69.90
2019-03-01T02:29:40.187Z,68.50
2019-03-01T02:34:45.596Z,68.90
2019-03-01T02:39:51.032Z,68.80
2019-03-01T02:44:57.617Z,69.20
2019-03-01T02:50:04.703Z,68.40
2019-03-01T02:55:18.150Z,67.70
2019-03-01T03:00:26.830Z,65.80
2019-03-01T03:05:34.171Z,66.40
2019-03-01T03:10:39.713Z,66.60
2019-03-01T03:15:46.977Z,65.60
2019-03-01T03:20:52.942Z,67.80
2019-03-01T03:25:58.292Z,68.90
2019-03-01T03:31:04.038Z,68.60
2019-03-01T03:36:09.584Z,70.20
2019-03-01T03:41:15.064Z,72.10
2019-03-01T03:46:20.502Z,70.30
2019-03-01T03:51:25.929Z,64.20
2019-03-01T03:56:31.429Z,64.30
2019-03-01T04:01:36.918Z,64.70
2019-03-01T04:06:42.576Z,66.20
2019-03-01T04:11:48.114Z,64.70
2019-03-01T04:16:53.588Z,63.70
2019-03-01T04:21:58.928Z,62.50
2019-03-01T04:27:04.483Z,62.30
2019-03-01T04:32:09.917Z,65.80
2019-03-01T04:37:15.816Z,67.70
2019-03-01T04:42:21.299Z,69.10
2019-03-01T04:47:26.854Z,69.70
2019-03-01T04:52:35.949Z,67.70
2019-03-01T04:57:41.463Z,67.60
2019-03-01T05:02:47.058Z,69.30
2019-03-01T05:07:52.686Z,68.20
2019-03-01T05:12:58.177Z,70.40
2019-03-01T05:18:03.529Z,70.70
2019-03-01T05:23:08.961Z,67.20
2019-03-01T05:28:14.398Z,67.00
2019-03-01T05:33:20.009Z,67.20
2019-03-01T05:38:25.504Z,65.60
2019-03-01T05:43:30.919Z,67.20
2019-03-01T05:48:36.347Z,69.40
2019-03-01T05:53:42.343Z,67.80
2019-03-01T05:58:47.868Z,66.60
2019-03-01T06:04:08.343Z,64.30
2019-03-01T06:09:39.388Z,67.10
2019-03-01T06:15:09.022Z,70.60
2019-03-01T06:20:23.349Z,70.10
2019-03-01T06:25:48.716Z,70.00
2019-03-01T06:31:12.654Z,70.40
2019-03-01T06:36:29.499Z,71.00
2019-03-01T06:41:54.406Z,72.20
2019-03-01T06:47:05.735Z,71.10
2019-03-01T06:52:11.118Z,71.20
2019-03-01T06:57:16.572Z,72.10
2019-03-01T07:02:23.645Z,72.40
2019-03-01T07:07:29.087Z,70.40
2019-03-01T07:12:34.511Z,70.20
2019-03-01T07:17:39.994Z,69.30
2019-03-01T07:22:45.513Z,69.90
2019-03-01T07:27:51.739Z,69.50
2019-03-01T07:32:57.088Z,70.70
2019-03-01T07:38:02.609Z,70.60
2019-03-01T07:43:08.039Z,70.20
2019-03-01T07:48:13.519Z,70.20
2019-03-01T07:53:18.871Z,68.40
2019-03-01T07:58:25.602Z,65.10
2019-03-01T08:03:31.299Z,66.20
2019-03-01T08:08:39.073Z,67.40
2019-03-01T08:13:43.761Z,66.30
2019-03-01T08:18:49.316Z,67.40
2019-03-01T08:23:54.842Z,66.70
2019-03-01T08:29:00.939Z,67.20
2019-03-01T08:34:06.467Z,68.10
2019-03-01T08:39:11.972Z,66.10
2019-03-01T08:44:19.323Z,67.40
2019-03-01T08:49:24.373Z,66.90
2019-03-01T08:54:31.124Z,63.70
2019-03-01T08:59:36.728Z,65.00
2019-03-01T09:04:50.661Z,62.20
2019-03-01T09:09:50.393Z,61.60
2019-03-01T09:14:55.959Z,60.70
2019-03-01T09:20:01.337Z,64.80
2019-03-01T09:25:10.030Z,64.60
2019-03-01T09:30:21.566Z,63.20
2019-03-01T09:35:43.197Z,63.20
2019-03-01T09:40:48.004Z,60.50
2019-03-01T09:45:53.494Z,57.40
2019-03-01T09:50:58.960Z,58.80
2019-03-01T09:56:04.579Z,56.50
2019-03-01T10:01:15.182Z,55.20
2019-03-01T10:06:20.679Z,53.90
2019-03-01T10:11:26.169Z,53.80
2019-03-01T10:16:31.698Z,56.50
2019-03-01T10:21:37.075Z,57.50
2019-03-01T10:26:42.499Z,57.90
2019-03-01T10:31:47.894Z,56.00
2019-03-01T10:36:53.243Z,55.80
2019-03-01T10:41:58.593Z,56.60
2019-03-01T10:47:04.111Z,57.40
2019-03-01T10:52:09.611Z,52.80
2019-03-01T10:57:14.986Z,54.90
2019-03-01T11:02:20.410Z,57.30
2019-03-01T11:07:25.920Z,55.50
2019-03-01T11:12:31.322Z,54.50
2019-03-01T11:17:36.683Z,53.20
2019-03-01T11:22:42.165Z,53.50
2019-03-01T11:27:47.749Z,51.80
2019-03-01T11:32:53.259Z,50.50
2019-03-01T11:37:58.691Z,52.00
2019-03-01T11:43:05.209Z,54.60
2019-03-01T11:48:10.651Z,54.80
2019-03-01T11:53:16.091Z,55.00
2019-03-01T11:58:21.599Z,54.30
2019-03-01T12:03:27.023Z,54.10
2019-03-01T12:08:32.412Z,55.10
2019-03-01T12:13:37.798Z,52.80
2019-03-01T12:18:43.305Z,55.40
2019-03-01T12:23:48.661Z,51.60
2019-03-01T12:28:54.145Z,46.40
2019-03-01T12:33:59.563Z,49.60
2019-03-01T12:39:07.373Z,48.40
2019-03-01T12:44:14.329Z,46.30
2019-03-01T12:49:19.739Z,41.30
2019-03-01T12:54:25.291Z,38.20
2019-03-01T12:59:30.648Z,40.70
2019-03-01T13:04:36.018Z,38.50
2019-03-01T13:09:41.435Z,42.20
2019-03-01T13:14:47.980Z,38.30
2019-03-01T13:19:53.437Z,38.00
2019-03-01T13:24:58.857Z,37.50
2019-03-01T13:30:06.619Z,35.80
2019-03-01T13:35:14.670Z,36.80
2019-03-01T13:40:24.474Z,37.60
2019-03-01T13:45:28.402Z,39.20
2019-03-01T13:50:33.764Z,42.00
2019-03-01T13:55:39.254Z,44.30
2019-03-01T14:00:45.607Z,43.30
2019-03-01T14:05:54.647Z,42.80
2019-03-01T14:10:59.118Z,41.90
2019-03-01T14:16:04.690Z,42.80
2019-03-01T14:21:10.191Z,42.90
2019-03-01T14:26:18.548Z,43.60
2019-03-01T14:31:22.930Z,44.00
2019-03-01T14:36:28.331Z,44.20
2019-03-01T14:41:35.031Z,43.50
2019-03-01T14:46:40.637Z,43.90
2019-03-01T14:51:46.945Z,43.40
2019-03-01T14:56:53.165Z,41.50
2019-03-01T15:02:09.083Z,42.30
2019-03-01T15:07:15.252Z,42.60
2019-03-01T15:12:21.567Z,43.00
2019-03-01T15:17:27.156Z,45.10
2019-03-01T15:22:32.637Z,45.50
2019-03-01T15:27:40.175Z,46.30
2019-03-01T15:32:45.241Z,47.40
2019-03-01T15:37:50.620Z,47.00
2019-03-01T15:42:56.095Z,46.70
2019-03-01T15:48:05.183Z,47.10
2019-03-01T15:53:14.432Z,45.80
2019-03-01T15:58:20.350Z,45.80
2019-03-01T16:03:26.023Z,46.00
2019-03-01T16:08:31.437Z,46.50
2019-03-01T16:13:38.003Z,47.70
2019-03-01T16:18:43.515Z,46.30
2019-03-01T16:23:51.858Z,47.30
2019-03-01T16:28:59.925Z,47.80
2019-03-01T16:34:05.505Z,48.00
2019-03-01T16:39:12.263Z,47.60
2019-03-01T16:44:17.952Z,47.60
2019-03-01T16:49:26.838Z,47.40
2019-03-01T16:54:30.831Z,48.00
2019-03-01T16:59:39.548Z,47.60
2019-03-01T17:04:44.913Z,48.40
2019-03-01T17:09:51.367Z,48.50
2019-03-01T17:15:01.564Z,49.40
2019-03-01T17:20:10.885Z,49.30
2019-03-01T17:25:16.890Z,49.20
2019-03-01T17:30:23.841Z,49.20
2019-03-01T17:35:29.349Z,48.90
2019-03-01T17:40:35.853Z,48.60
2019-03-01T17:45:41.411Z,48.60
2019-03-01T17:50:47.000Z,48.30
2019-03-01T17:55:52.605Z,48.50
2019-03-01T18:00:58.797Z,48.90
2019-03-01T18:06:05.266Z,49.10
2019-03-01T18:11:10.610Z,49.40
2019-03-01T18:16:16.946Z,49.30
2019-03-01T18:21:22.378Z,49.00
2019-03-01T18:26:27.809Z,48.90
2019-03-01T18:31:35.392Z,49.10
2019-03-01T18:36:40.410Z,49.70
2019-03-01T18:41:45.761Z,49.60
2019-03-01T18:46:51.611Z,49.50
2019-03-01T18:51:58.219Z,49.80
2019-03-01T18:57:04.576Z,49.50
2019-03-01T19:02:10.079Z,49.60
2019-03-01T19:07:15.671Z,50.20
2019-03-01T19:12:21.028Z,50.10
2019-03-01T19:17:27.368Z,49.90
2019-03-01T19:22:32.807Z,50.20
2019-03-01T19:27:40.135Z,50.20
2019-03-01T19:32:45.663Z,50.50
2019-03-01T19:37:51.221Z,50.40
2019-03-01T19:42:57.667Z,50.70
2019-03-01T19:48:03.512Z,50.50
2019-03-01T19:53:09.140Z,50.70
2019-03-01T19:58:14.514Z,50.90
2019-03-01T20:03:19.915Z,51.10
2019-03-01T20:08:26.412Z,50.40
2019-03-01T20:13:32.603Z,49.90
2019-03-01T20:18:38.105Z,50.40
2019-03-01T20:23:43.700Z,50.00
2019-03-01T20:28:50.462Z,50.00
2019-03-01T20:33:58.580Z,50.60
2019-03-01T20:39:05.204Z,50.30
2019-03-01T20:44:14.729Z,49.90
2019-03-01T20:49:19.498Z,49.20
2019-03-01T20:54:25.718Z,48.90
2019-03-01T20:59:31.957Z,49.00
2019-03-01T21:04:41.567Z,49.10
2019-03-01T21:09:44.896Z,49.10
2019-03-01T21:14:50.515Z,49.10
2019-03-01T21:19:56.687Z,49.20
2019-03-01T21:25:03.252Z,49.00
2019-03-01T21:30:12.154Z,48.90
2019-03-01T21:35:17.579Z,48.90
2019-03-01T21:40:23.085Z,48.80
2019-03-01T21:45:28.576Z,48.50
2019-03-01T21:50:33.994Z,48.60
2019-03-01T21:55:39.347Z,48.90
2019-03-01T22:00:44.943Z,48.40
2019-03-01T22:05:50.352Z,48.20
2019-03-01T22:10:55.771Z,48.50
2019-03-01T22:16:01.859Z,48.90
2019-03-01T22:21:07.301Z,48.90
2019-03-01T22:26:16.015Z,49.00
2019-03-01T22:31:20.839Z,49.10
2019-03-01T22:36:26.198Z,49.10
2019-03-01T22:41:35.609Z,49.40
2019-03-01T22:46:39.710Z,49.50
2019-03-01T22:51:45.061Z,49.00
2019-03-01T22:56:50.420Z,49.00
2019-03-01T23:01:56.036Z,48.90
2019-03-01T23:07:01.453Z,49.20
2019-03-01T23:12:08.033Z,49.40
2019-03-01T23:17:14.161Z,49.00
2019-03-01T23:22:19.600Z,49.30
2019-03-01T23:27:25.007Z,49.30
2019-03-01T23:32:30.430Z,48.80
2019-03-01T23:37:38.932Z,47.40
2019-03-01T23:42:43.232Z,47.20
2019-03-01T23:47:48.733Z,46.80
2019-03-01T23:52:54.906Z,46.20
2019-03-01T23:58:06.070Z,46.80
